Time;durP1;ratioP1;P1;durP2;ratioP2;P2;SDS_P1;SDS_P2;PMS_P1;PMS_P2;Temp;Humidity;BMP_temperature;BMP_pressure;BME280_temperature;BME280_humidity;BME280_pressure;Samples;Min_cycle;Max_cycle;Signal;HPM_P1;HPM_P2
2022/12/08 00:01:29;;;;;;;16.63;8.97;;;7.90;59.80;;;;;;4908843;29;20465;-86
2022/12/08 00:03:57;;;;;;;11.87;7.50;;;8.00;60.00;;;;;;4944027;28;20474;-86
2022/12/08 00:09:22;;;;;;;14.60;8.40;;;8.00;60.00;;;;;;4935898;28;20639;-89
2022/12/08 00:11:50;;;;;;;13.70;8.30;;;8.00;60.00;;;;;;4921704;29;20549;-87
2022/12/08 00:14:18;;;;;;;16.73;8.97;;;8.00;59.80;;;;;;4897726;29;20464;-87
2022/12/08 00:16:45;;;;;;;16.80;9.63;;;7.90;60.60;;;;;;4907291;29;20509;-87
2022/12/08 00:19:12;;;;;;;17.50;9.23;;;8.00;60.90;;;;;;4952669;28;20858;-89
2022/12/08 00:21:39;;;;;;;17.73;8.93;;;8.20;60.70;;;;;;4897619;29;20610;-86
2022/12/08 00:24:06;;;;;;;18.40;10.13;;;8.40;61.20;;;;;;4928863;29;20800;-87
2022/12/08 00:26:34;;;;;;;14.63;8.70;;;8.50;60.20;;;;;;4893746;29;21004;-87
2022/12/08 00:29:01;;;;;;;15.53;10.00;;;8.40;60.20;;;;;;4951122;28;20461;-87
2022/12/08 00:31:28;;;;;;;18.57;10.87;;;8.50;59.80;;;;;;4903994;29;20462;-90
2022/12/08 00:33:55;;;;;;;15.47;9.00;;;8.50;59.60;;;;;;4911733;29;20471;-86
2022/12/08 00:36:22;;;;;;;14.73;8.23;;;8.40;59.20;;;;;;4935714;28;20443;-89
2022/12/08 00:38:49;;;;;;;17.13;8.63;;;8.30;59.40;;;;;;4927541;29;20458;-86
2022/12/08 00:41:18;;;;;;;14.10;7.73;;;8.10;60.00;;;;;;4891362;29;20463;-89
2022/12/08 00:43:46;;;;;;;17.87;8.57;;;8.10;60.00;;;;;;4920874;29;20479;-86
2022/12/08 00:46:13;;;;;;;12.07;7.70;;;8.10;60.00;;;;;;4896531;29;20964;-87
2022/12/08 00:48:40;;;;;;;15.70;8.13;;;8.00;60.10;;;;;;4922688;29;20542;-86
2022/12/08 00:51:07;;;;;;;20.40;9.07;;;8.10;60.40;;;;;;4896076;29;20473;-88
2022/12/08 00:53:34;;;;;;;17.40;8.40;;;8.00;60.20;;;;;;4950806;28;20909;-86
2022/12/08 00:56:01;;;;;;;14.90;8.57;;;8.00;60.70;;;;;;4919444;29;20442;-90
2022/12/08 00:58:28;;;;;;;14.90;7.80;;;7.80;60.80;;;;;;4920508;29;20458;-85
2022/12/08 01:00:57;;;;;;;15.67;9.20;;;7.70;61.00;;;;;;4919649;29;20582;-88
2022/12/08 01:03:24;;;;;;;15.37;8.93;;;7.70;61.60;;;;;;4922061;29;20583;-89
2022/12/08 01:05:51;;;;;;;19.10;10.33;;;7.70;61.70;;;;;;4922409;29;20482;-86
2022/12/08 01:08:18;;;;;;;16.63;8.70;;;7.70;61.50;;;;;;4904763;29;20466;-85
2022/12/08 01:10:45;;;;;;;15.43;8.67;;;7.90;60.90;;;;;;4892071;29;20843;-86
2022/12/08 01:13:12;;;;;;;16.60;9.83;;;7.90;60.60;;;;;;4950743;28;20481;-88
2022/12/08 01:15:39;;;;;;;18.87;9.17;;;7.80;61.20;;;;;;4926620;29;20465;-86
2022/12/08 01:18:07;;;;;;;21.77;9.90;;;7.70;61.30;;;;;;4901455;29;20894;-89
2022/12/08 01:20:34;;;;;;;16.40;9.23;;;7.70;61.90;;;;;;4890820;29;20463;-88
2022/12/08 01:23:01;;;;;;;14.70;8.30;;;7.80;61.50;;;;;;4951984;28;20475;-88
2022/12/08 01:25:28;;;;;;;17.07;9.23;;;8.00;61.10;;;;;;4892986;29;20571;-89
2022/12/08 01:27:55;;;;;;;16.57;10.10;;;8.10;60.90;;;;;;4890350;29;20469;-86
2022/12/08 01:30:22;;;;;;;14.83;9.63;;;8.10;60.90;;;;;;4904465;29;20454;-88
2022/12/08 01:32:49;;;;;;;16.47;8.77;;;8.00;60.40;;;;;;4904809;29;20494;-86
2022/12/08 01:35:18;;;;;;;18.17;9.80;;;8.00;60.50;;;;;;4922023;29;20541;-88
2022/12/08 01:37:45;;;;;;;18.00;10.03;;;7.70;61.30;;;;;;4928602;29;20518;-89
2022/12/08 01:40:12;;;;;;;18.87;9.47;;;7.80;61.60;;;;;;4928012;29;20881;-87
2022/12/08 01:42:39;;;;;;;18.67;10.70;;;7.80;61.00;;;;;;4895318;29;20485;-86
2022/12/08 01:45:13;;;;;;;21.10;10.33;;;7.70;61.60;;;;;;4916973;29;20509;-86
2022/12/08 01:47:44;;;;;;;18.37;10.50;;;7.70;61.80;;;;;;4922108;29;20477;-85
2022/12/08 01:50:15;;;;;;;17.77;9.53;;;7.60;62.00;;;;;;4922311;29;20517;-85
2022/12/08 01:52:48;;;;;;;15.63;9.43;;;7.80;61.90;;;;;;4921870;29;20473;-87
2022/12/08 01:55:18;;;;;;;18.07;10.60;;;7.90;61.10;;;;;;4911906;29;20964;-87
2022/12/08 01:57:49;;;;;;;15.00;10.43;;;8.00;61.00;;;;;;4896373;29;20459;-89
2022/12/08 02:00:19;;;;;;;19.33;10.10;;;8.00;61.20;;;;;;4944356;29;20846;-88
2022/12/08 02:02:52;;;;;;;22.63;11.77;;;7.90;60.30;;;;;;4907064;29;20470;-91
2022/12/08 02:05:22;;;;;;;18.87;10.53;;;7.70;61.10;;;;;;4897298;29;20462;-90
2022/12/08 02:07:51;;;;;;;20.87;11.80;;;7.50;62.20;;;;;;4928874;29;20470;-88
2022/12/08 02:10:21;;;;;;;20.73;10.93;;;7.70;62.10;;;;;;4912520;29;20470;-87
2022/12/08 02:12:50;;;;;;;18.60;9.73;;;8.00;61.60;;;;;;4941965;28;20482;-86
2022/12/08 02:15:17;;;;;;;26.27;11.60;;;8.20;61.20;;;;;;4935851;28;20808;-86
2022/12/08 02:18:00;;;;;;;25.70;11.80;;;8.20;60.30;;;;;;4933950;28;20638;-88
2022/12/08 02:20:47;;;;;;;18.37;10.80;;;8.20;60.40;;;;;;4925686;29;20840;-88
2022/12/08 02:23:32;;;;;;;22.60;11.20;;;7.80;60.20;;;;;;4897924;29;20483;-89
2022/12/08 02:26:26;;;;;;;29.00;13.90;;;7.70;61.00;;;;;;4920706;29;20492;-89
2022/12/08 02:29:12;;;;;;;20.07;10.83;;;7.50;61.90;;;;;;4947382;28;20816;-86
2022/12/08 02:31:53;;;;;;;19.20;10.53;;;7.60;62.00;;;;;;4891686;29;21011;-85
2022/12/08 02:34:29;;;;;;;21.27;10.37;;;7.70;61.50;;;;;;4907639;29;21805;-84
2022/12/08 02:37:07;;;;;;;19.17;9.70;;;7.80;61.40;;;;;;4907320;29;20795;-85
2022/12/08 02:39:41;;;;;;;19.07;10.57;;;7.90;61.20;;;;;;4918319;29;20940;-86
2022/12/08 02:42:20;;;;;;;26.23;11.43;;;8.00;60.90;;;;;;4932049;28;20501;-85
2022/12/08 02:44:52;;;;;;;17.83;10.50;;;8.10;60.80;;;;;;4886244;29;20550;-86
2022/12/08 02:47:22;;;;;;;24.53;10.83;;;8.20;60.20;;;;;;4912599;29;20478;-86
2022/12/08 02:49:50;;;;;;;24.73;12.10;;;8.20;60.00;;;;;;4948602;28;20461;-85
2022/12/08 02:52:40;;;;;;;29.17;10.67;;;8.00;60.30;;;;;;4946647;28;20463;-85
2022/12/08 02:55:14;;;;;;;24.03;11.30;;;8.00;60.60;;;;;;4915417;29;20483;-86
2022/12/08 02:57:56;;;;;;;22.03;11.50;;;7.90;61.10;;;;;;4917178;29;20922;-86
2022/12/08 03:00:25;;;;;;;16.33;10.53;;;7.90;60.90;;;;;;4907763;29;20979;-85
2022/12/08 03:03:14;;;;;;;21.80;10.80;;;7.90;60.70;;;;;;4907614;29;20983;-86
2022/12/08 03:05:55;;;;;;;23.63;11.17;;;7.70;61.50;;;;;;4906835;29;20482;-86
2022/12/08 03:08:28;;;;;;;27.10;12.77;;;7.70;61.50;;;;;;4890518;29;22268;-86
2022/12/08 03:11:01;;;;;;;23.33;11.30;;;7.70;61.30;;;;;;4891538;29;20462;-86
2022/12/08 03:13:34;;;;;;;20.70;11.40;;;7.80;61.50;;;;;;4916471;29;20553;-86
2022/12/08 03:16:06;;;;;;;24.40;11.10;;;7.80;61.30;;;;;;4918003;29;20453;-86
2022/12/08 03:18:36;;;;;;;18.83;10.70;;;7.60;61.70;;;;;;4903184;28;20460;-88
2022/12/08 03:21:06;;;;;;;23.33;11.80;;;7.50;62.10;;;;;;4906465;29;20521;-86
2022/12/08 03:23:37;;;;;;;21.20;10.90;;;7.60;61.90;;;;;;4916305;29;21004;-86
2022/12/08 03:26:08;;;;;;;23.20;10.43;;;7.60;61.90;;;;;;4923404;29;20630;-86
2022/12/08 03:28:35;;;;;;;23.33;11.63;;;7.60;61.30;;;;;;4914218;29;21076;-86
2022/12/08 03:31:07;;;;;;;20.87;11.37;;;7.50;62.30;;;;;;4907982;29;20451;-87
2022/12/08 03:33:38;;;;;;;20.03;11.07;;;7.50;62.00;;;;;;4913536;29;20487;-86
2022/12/08 03:36:09;;;;;;;26.20;12.17;;;7.50;62.50;;;;;;4907746;29;20454;-86
2022/12/08 03:38:41;;;;;;;27.30;12.07;;;7.40;62.90;;;;;;4914912;29;20453;-87
2022/12/08 03:41:18;;;;;;;24.50;11.20;;;7.50;62.30;;;;;;4923259;29;20450;-87
2022/12/08 03:43:45;;;;;;;22.60;9.97;;;7.40;63.00;;;;;;4889506;29;21006;-87
2022/12/08 03:46:13;;;;;;;22.57;10.77;;;7.30;63.70;;;;;;4892809;29;20486;-86
2022/12/08 03:48:40;;;;;;;23.03;10.60;;;7.40;63.80;;;;;;4900961;29;20532;-87
2022/12/08 03:51:08;;;;;;;25.40;11.67;;;7.40;63.00;;;;;;4925183;29;20459;-85
2022/12/08 03:53:35;;;;;;;23.30;11.30;;;7.50;62.80;;;;;;4941916;28;21083;-86
2022/12/08 03:56:04;;;;;;;24.40;11.20;;;7.50;62.50;;;;;;4887618;29;20653;-87
2022/12/08 03:58:31;;;;;;;27.80;12.80;;;7.50;62.80;;;;;;4894152;29;20438;-87
2022/12/08 04:00:58;;;;;;;19.57;11.20;;;7.60;62.50;;;;;;4916822;29;20466;-86
2022/12/08 04:03:25;;;;;;;26.43;11.80;;;7.70;62.00;;;;;;4918413;29;20826;-85
2022/12/08 04:05:52;;;;;;;24.93;11.70;;;7.70;61.60;;;;;;4922317;29;20474;-87
2022/12/08 04:08:21;;;;;;;23.13;12.03;;;7.90;61.70;;;;;;4950022;28;21102;-87
2022/12/08 04:10:48;;;;;;;36.50;14.97;;;7.90;61.30;;;;;;4895984;29;20450;-86
2022/12/08 04:13:15;;;;;;;28.53;14.47;;;7.90;61.60;;;;;;4920248;29;20850;-87
2022/12/08 04:15:45;;;;;;;29.53;12.90;;;8.00;61.70;;;;;;4933438;29;20455;-86
2022/12/08 04:18:12;;;;;;;23.53;10.33;;;8.00;62.10;;;;;;4935112;29;20482;-85
2022/12/08 04:20:40;;;;;;;24.83;10.77;;;7.90;61.60;;;;;;4938676;28;20457;-87
2022/12/08 04:23:07;;;;;;;28.20;13.63;;;8.00;61.50;;;;;;4887703;28;20531;-87
2022/12/08 04:25:36;;;;;;;30.33;13.13;;;7.90;61.10;;;;;;4915148;29;20451;-87
2022/12/08 04:28:04;;;;;;;22.87;11.90;;;8.00;61.20;;;;;;4924210;29;20529;-87
2022/12/08 04:30:31;;;;;;;24.17;13.27;;;8.00;61.40;;;;;;4934175;28;20461;-87
2022/12/08 04:32:58;;;;;;;22.77;12.17;;;8.10;61.00;;;;;;4904727;29;20489;-86
2022/12/08 04:35:25;;;;;;;20.83;10.30;;;7.90;61.40;;;;;;4938406;28;20458;-85
2022/12/08 04:37:52;;;;;;;19.70;11.20;;;8.00;61.60;;;;;;4933577;29;20446;-87
2022/12/08 04:40:19;;;;;;;25.23;11.57;;;8.20;61.50;;;;;;4948210;28;20553;-86
2022/12/08 04:42:47;;;;;;;19.93;12.00;;;8.20;61.10;;;;;;4933498;28;20478;-87
2022/12/08 04:45:15;;;;;;;22.60;11.03;;;8.30;61.00;;;;;;4909530;29;20809;-86
2022/12/08 04:47:42;;;;;;;19.80;10.90;;;8.30;60.30;;;;;;4919030;29;20847;-87
2022/12/08 04:50:10;;;;;;;23.10;11.27;;;8.30;60.40;;;;;;4931620;28;20530;-85
2022/12/08 04:52:37;;;;;;;22.33;11.30;;;8.20;60.80;;;;;;4916758;29;20474;-86
2022/12/08 04:55:05;;;;;;;26.10;13.00;;;8.20;61.40;;;;;;4920069;29;20522;-87
2022/12/08 04:57:32;;;;;;;24.00;11.23;;;8.20;60.90;;;;;;4931282;28;20450;-86
2022/12/08 05:00:00;;;;;;;21.03;10.50;;;8.20;61.20;;;;;;4933620;29;20449;-84
2022/12/08 05:02:27;;;;;;;25.47;10.13;;;8.10;61.00;;;;;;4900804;29;20474;-86
2022/12/08 05:04:54;;;;;;;16.00;9.70;;;8.20;61.10;;;;;;4919410;28;20455;-86
2022/12/08 05:07:21;;;;;;;20.07;10.30;;;8.00;61.20;;;;;;4891642;29;20479;-87
2022/12/08 05:09:48;;;;;;;22.87;9.80;;;7.80;61.60;;;;;;4930496;28;20442;-86
2022/12/08 05:12:15;;;;;;;24.90;12.00;;;7.60;62.00;;;;;;4914902;29;20486;-86
2022/12/08 05:14:43;;;;;;;20.70;10.43;;;7.70;62.60;;;;;;4887227;29;20544;-86
2022/12/08 05:17:12;;;;;;;19.10;9.90;;;7.60;62.40;;;;;;4904579;29;20438;-86
2022/12/08 05:19:38;;;;;;;22.77;12.33;;;7.70;62.40;;;;;;4948291;28;20969;-86
2022/12/08 05:22:05;;;;;;;25.90;10.67;;;7.70;62.40;;;;;;4904973;29;20851;-86
2022/12/08 05:24:33;;;;;;;16.13;9.73;;;7.70;62.80;;;;;;4922259;29;20450;-86
2022/12/08 05:27:00;;;;;;;15.60;9.80;;;7.80;62.20;;;;;;4888320;29;20546;-86
2022/12/08 05:29:27;;;;;;;16.67;8.60;;;7.80;61.50;;;;;;4898253;29;20486;-85
2022/12/08 05:31:54;;;;;;;17.03;8.80;;;7.80;61.80;;;;;;4917970;29;21146;-86
2022/12/08 05:34:22;;;;;;;19.23;10.00;;;7.80;61.40;;;;;;4947875;28;20814;-87
2022/12/08 05:36:49;;;;;;;17.07;9.47;;;7.80;61.80;;;;;;4911912;29;21003;-86
2022/12/08 05:39:16;;;;;;;24.33;9.23;;;7.90;61.40;;;;;;4917402;29;20461;-87
2022/12/08 05:41:43;;;;;;;19.80;9.87;;;8.00;61.30;;;;;;4917435;29;20452;-87
2022/12/08 05:44:10;;;;;;;21.07;9.97;;;8.00;61.00;;;;;;4887628;29;20456;-86
2022/12/08 05:46:37;;;;;;;19.07;10.27;;;8.20;60.70;;;;;;4904014;29;20522;-86
2022/12/08 05:49:04;;;;;;;19.30;10.40;;;8.20;60.50;;;;;;4899860;29;20990;-86
2022/12/08 05:51:32;;;;;;;14.53;9.90;;;8.20;60.20;;;;;;4929879;28;21038;-86
2022/12/08 05:54:00;;;;;;;16.13;8.20;;;8.20;60.00;;;;;;4948189;28;20471;-86
2022/12/08 05:56:27;;;;;;;18.93;10.97;;;8.10;60.50;;;;;;4933260;29;20453;-85
2022/12/08 05:58:54;;;;;;;21.90;10.97;;;8.10;60.30;;;;;;4916191;29;20461;-86
2022/12/08 06:01:22;;;;;;;23.70;11.57;;;8.20;60.30;;;;;;4894455;29;20953;-86
2022/12/08 06:03:49;;;;;;;20.70;11.63;;;8.20;60.30;;;;;;4922778;29;20493;-86
2022/12/08 06:06:16;;;;;;;18.70;9.80;;;8.10;60.10;;;;;;4947242;28;20463;-86
2022/12/08 06:08:45;;;;;;;20.07;10.60;;;8.00;60.70;;;;;;4907543;29;20461;-86
2022/12/08 06:11:18;;;;;;;18.83;9.60;;;7.80;61.10;;;;;;4920120;29;20462;-86
2022/12/08 06:13:45;;;;;;;18.27;9.40;;;7.90;61.40;;;;;;4906711;29;20533;-86
2022/12/08 06:16:12;;;;;;;16.90;8.50;;;7.90;61.20;;;;;;4924672;29;20542;-86
2022/12/08 06:18:39;;;;;;;22.87;9.37;;;7.90;61.10;;;;;;4901164;29;20955;-86
2022/12/08 06:21:08;;;;;;;15.70;8.33;;;7.90;60.70;;;;;;4915209;29;21204;-86
2022/12/08 06:23:36;;;;;;;17.67;9.10;;;7.80;60.30;;;;;;4936012;28;20488;-86
2022/12/08 06:26:06;;;;;;;16.73;7.80;;;7.80;60.60;;;;;;4933821;29;20456;-86
2022/12/08 06:28:34;;;;;;;16.77;7.57;;;7.80;60.30;;;;;;4908129;29;20793;-86
2022/12/08 06:31:07;;;;;;;14.07;8.17;;;7.90;60.10;;;;;;4918599;29;20468;-86
2022/12/08 06:33:34;;;;;;;14.60;7.27;;;7.90;60.10;;;;;;4901727;29;20482;-85
2022/12/08 06:36:01;;;;;;;9.57;6.43;;;7.70;60.10;;;;;;4937699;28;20454;-86
2022/12/08 06:38:28;;;;;;;15.20;7.87;;;7.40;60.20;;;;;;4904901;29;20451;-86
2022/12/08 06:40:56;;;;;;;13.00;7.27;;;7.40;61.30;;;;;;4908004;29;20462;-85
2022/12/08 06:43:25;;;;;;;11.07;7.50;;;7.50;60.90;;;;;;4900258;29;21137;-86
2022/12/08 06:45:52;;;;;;;13.10;7.87;;;7.60;60.90;;;;;;4919505;29;20465;-85
2022/12/08 06:48:19;;;;;;;14.90;7.57;;;7.70;60.50;;;;;;4905393;29;20483;-86
2022/12/08 06:50:47;;;;;;;11.40;6.40;;;7.70;60.10;;;;;;4915443;29;20552;-87
2022/12/08 06:53:15;;;;;;;12.40;7.87;;;7.70;59.90;;;;;;4903004;29;20466;-86
2022/12/08 06:55:44;;;;;;;14.33;7.90;;;7.70;60.80;;;;;;4933980;28;20828;-87
2022/12/08 06:58:11;;;;;;;14.07;7.50;;;7.70;60.60;;;;;;4916295;29;20458;-87
2022/12/08 07:00:40;;;;;;;12.77;7.13;;;7.80;60.50;;;;;;4900801;29;20456;-87
2022/12/08 07:03:08;;;;;;;16.17;7.70;;;7.70;60.80;;;;;;4916147;29;20479;-86
2022/12/08 07:05:35;;;;;;;12.40;7.97;;;7.50;60.80;;;;;;4919050;29;20463;-88
2022/12/08 07:08:02;;;;;;;16.13;8.27;;;7.30;61.70;;;;;;4930980;29;20478;-87
2022/12/08 07:10:29;;;;;;;11.50;6.33;;;7.20;62.20;;;;;;4892995;29;20466;-86
2022/12/08 07:12:56;;;;;;;13.20;7.70;;;7.20;62.30;;;;;;4907016;29;20493;-87
2022/12/08 07:15:23;;;;;;;11.63;7.60;;;7.00;62.70;;;;;;4931359;28;20458;-87
2022/12/08 07:17:51;;;;;;;15.67;8.20;;;7.10;63.20;;;;;;4890238;29;20734;-87
2022/12/08 07:20:19;;;;;;;12.57;8.20;;;6.90;63.10;;;;;;4949316;28;20501;-87
2022/12/08 07:22:49;;;;;;;15.83;8.40;;;6.90;63.50;;;;;;4941028;28;20876;-86
2022/12/08 07:25:17;;;;;;;15.30;7.60;;;7.00;63.30;;;;;;4935114;28;20462;-87
2022/12/08 07:27:44;;;;;;;14.40;8.07;;;7.10;63.20;;;;;;4947788;28;20477;-87
2022/12/08 07:30:13;;;;;;;13.90;8.33;;;7.10;63.40;;;;;;4906523;29;20466;-87
2022/12/08 07:32:40;;;;;;;11.73;8.00;;;7.30;62.70;;;;;;4922636;29;20473;-86
2022/12/08 07:35:09;;;;;;;13.57;7.10;;;7.40;61.60;;;;;;4909575;29;20536;-86
2022/12/08 07:37:37;;;;;;;14.17;7.47;;;7.30;62.10;;;;;;4895131;29;20454;-86
2022/12/08 07:40:05;;;;;;;12.73;7.90;;;7.40;62.40;;;;;;4892326;29;20477;-87
2022/12/08 07:42:33;;;;;;;16.37;7.87;;;7.30;62.20;;;;;;4933293;29;20926;-87
2022/12/08 07:45:00;;;;;;;16.13;8.30;;;7.30;62.20;;;;;;4900684;29;21035;-86
2022/12/08 07:47:27;;;;;;;9.60;6.00;;;7.20;62.30;;;;;;4920639;29;20474;-86
2022/12/08 07:49:54;;;;;;;14.73;7.17;;;7.30;62.50;;;;;;4937411;29;20817;-87
2022/12/08 07:52:22;;;;;;;13.87;7.60;;;7.40;62.20;;;;;;4895088;29;20998;-85
2022/12/08 07:54:49;;;;;;;13.33;7.63;;;7.30;62.30;;;;;;4896322;29;20549;-86
2022/12/08 07:57:16;;;;;;;13.70;7.30;;;7.40;62.50;;;;;;4936612;29;20462;-87
2022/12/08 07:59:43;;;;;;;12.30;7.30;;;7.30;62.40;;;;;;4909064;29;20896;-86
2022/12/08 08:02:16;;;;;;;11.20;6.73;;;7.40;62.00;;;;;;4903662;29;21011;-87
2022/12/08 08:04:44;;;;;;;17.87;9.03;;;7.30;62.30;;;;;;4918081;29;20671;-87
2022/12/08 08:07:11;;;;;;;15.43;8.73;;;7.30;62.70;;;;;;4952514;28;20573;-86
2022/12/08 08:09:39;;;;;;;17.97;10.10;;;7.60;62.20;;;;;;4906928;29;20770;-86
2022/12/08 08:12:06;;;;;;;20.20;10.03;;;7.70;61.40;;;;;;4904426;29;20475;-86
2022/12/08 08:14:33;;;;;;;16.90;8.20;;;7.80;62.20;;;;;;4916947;29;20493;-87
2022/12/08 08:17:00;;;;;;;11.60;7.93;;;7.70;60.90;;;;;;4895139;29;20976;-86
2022/12/08 08:19:27;;;;;;;16.23;8.10;;;7.50;61.50;;;;;;4910033;29;20470;-84
2022/12/08 08:21:54;;;;;;;17.40;8.37;;;7.50;61.60;;;;;;4919229;29;20469;-86
2022/12/08 08:24:23;;;;;;;18.83;9.33;;;7.60;61.40;;;;;;4911291;29;20455;-87
2022/12/08 08:26:52;;;;;;;15.87;9.70;;;7.50;62.10;;;;;;4921566;29;20457;-86
2022/12/08 08:29:19;;;;;;;14.20;7.33;;;7.50;62.70;;;;;;4907666;29;20459;-87
2022/12/08 08:31:46;;;;;;;16.50;8.80;;;7.40;62.10;;;;;;4931685;28;20484;-86
2022/12/08 08:34:13;;;;;;;13.20;7.93;;;7.30;62.80;;;;;;4935376;29;20446;-86
2022/12/08 08:36:40;;;;;;;13.93;8.30;;;7.30;63.30;;;;;;4927919;28;20454;-87
2022/12/08 08:39:07;;;;;;;13.40;7.77;;;7.40;62.30;;;;;;4917398;29;20545;-87
2022/12/08 08:41:35;;;;;;;17.20;9.20;;;7.40;62.60;;;;;;4901563;29;20832;-87
2022/12/08 08:44:04;;;;;;;14.90;8.57;;;7.50;62.20;;;;;;4941095;28;20999;-87
2022/12/08 08:46:31;;;;;;;16.83;9.07;;;7.50;62.20;;;;;;4884014;29;20829;-87
2022/12/08 08:48:58;;;;;;;12.97;7.70;;;7.70;62.10;;;;;;4902822;29;20900;-87
2022/12/08 08:51:25;;;;;;;20.03;9.40;;;7.80;61.50;;;;;;4949208;28;20465;-86
2022/12/08 08:53:52;;;;;;;14.10;8.67;;;7.70;62.50;;;;;;4900382;29;20462;-87
2022/12/08 08:56:19;;;;;;;16.40;7.80;;;7.80;62.70;;;;;;4909063;29;20450;-87
2022/12/08 08:58:48;;;;;;;15.70;8.73;;;7.90;61.50;;;;;;4932822;29;20537;-87
2022/12/08 09:01:18;;;;;;;14.47;9.03;;;7.90;61.40;;;;;;4910564;29;20885;-87
2022/12/08 09:03:45;;;;;;;17.37;9.80;;;8.10;61.30;;;;;;4931794;28;22197;-85
2022/12/08 09:06:13;;;;;;;14.67;8.30;;;7.90;60.40;;;;;;4919492;29;20465;-86
2022/12/08 09:08:40;;;;;;;15.43;8.73;;;7.70;61.60;;;;;;4906924;28;20482;-85
2022/12/08 09:11:08;;;;;;;13.30;7.67;;;7.80;61.60;;;;;;4897000;29;20458;-86
2022/12/08 09:13:35;;;;;;;14.77;7.53;;;7.90;60.70;;;;;;4913430;29;20478;-86
2022/12/08 09:16:03;;;;;;;19.33;10.27;;;8.00;60.50;;;;;;4950221;28;20473;-86
2022/12/08 09:18:31;;;;;;;14.63;8.47;;;8.00;61.50;;;;;;4900591;29;20450;-85
2022/12/08 09:21:04;;;;;;;14.50;9.00;;;8.00;60.50;;;;;;4902352;29;20473;-86
2022/12/08 09:23:31;;;;;;;12.53;7.93;;;8.00;61.00;;;;;;4946896;28;21061;-85
2022/12/08 09:25:59;;;;;;;19.90;9.13;;;8.10;61.00;;;;;;4920098;29;20446;-87
2022/12/08 09:28:26;;;;;;;11.97;7.10;;;8.00;60.00;;;;;;4915974;29;20467;-85
2022/12/08 09:30:53;;;;;;;11.60;6.87;;;8.10;60.10;;;;;;4933584;28;20468;-85
2022/12/08 09:33:20;;;;;;;13.93;7.40;;;7.90;61.30;;;;;;4905369;29;20491;-85
2022/12/08 09:35:48;;;;;;;12.90;7.37;;;7.70;61.30;;;;;;4923714;29;20981;-86
2022/12/08 09:38:15;;;;;;;13.93;7.30;;;7.90;61.40;;;;;;4934101;28;20465;-87
2022/12/08 09:40:48;;;;;;;15.30;7.30;;;7.90;61.40;;;;;;4915826;29;21227;-86
2022/12/08 09:43:30;;;;;;;11.20;7.20;;;7.80;61.10;;;;;;4917659;29;20482;-86
2022/12/08 09:45:59;;;;;;;9.80;6.80;;;7.80;61.40;;;;;;4908272;29;20466;-87
2022/12/08 09:48:34;;;;;;;13.13;6.77;;;7.90;62.00;;;;;;4917644;29;20822;-86
2022/12/08 09:51:04;;;;;;;10.83;6.73;;;8.00;60.90;;;;;;4902009;29;20444;-85
2022/12/08 09:53:36;;;;;;;13.07;7.37;;;8.10;61.00;;;;;;4914508;29;20474;-86
2022/12/08 09:56:06;;;;;;;12.07;7.20;;;7.90;61.70;;;;;;4915064;29;20835;-86
2022/12/08 09:58:44;;;;;;;9.83;6.30;;;8.10;61.60;;;;;;4891273;29;20510;-87
2022/12/08 10:01:12;;;;;;;11.03;6.90;;;8.20;60.00;;;;;;4908484;29;20473;-86
2022/12/08 10:03:40;;;;;;;13.23;7.03;;;8.40;59.80;;;;;;4914186;28;20842;-86
2022/12/08 10:06:20;;;;;;;12.23;6.70;;;8.60;59.80;;;;;;4917080;29;20478;-86
2022/12/08 10:08:59;;;;;;;10.10;6.60;;;8.40;59.10;;;;;;4919804;28;20482;-86
2022/12/08 10:11:32;;;;;;;8.73;5.90;;;8.10;60.10;;;;;;4919132;29;20468;-86
2022/12/08 10:14:13;;;;;;;11.10;6.43;;;8.10;61.20;;;;;;4926965;29;20486;-86
2022/12/08 10:16:42;;;;;;;9.37;5.73;;;8.30;61.20;;;;;;4884301;29;20459;-87
2022/12/08 10:19:15;;;;;;;9.23;5.97;;;8.40;60.30;;;;;;4905504;29;20863;-86
2022/12/08 10:21:44;;;;;;;11.43;6.60;;;8.70;60.00;;;;;;4922351;29;20464;-86
2022/12/08 10:24:17;;;;;;;9.87;6.63;;;8.70;59.40;;;;;;4902410;29;20610;-87
2022/12/08 10:26:46;;;;;;;11.40;6.80;;;8.70;59.70;;;;;;4914137;29;20455;-86
2022/12/08 10:29:14;;;;;;;7.70;5.70;;;8.70;59.50;;;;;;4918058;28;20482;-87
2022/12/08 10:31:41;;;;;;;9.90;5.90;;;8.70;59.80;;;;;;4915566;29;20462;-86
2022/12/08 10:34:17;;;;;;;11.20;6.30;;;8.40;59.40;;;;;;4890154;29;20517;-86
2022/12/08 10:36:51;;;;;;;18.00;9.03;;;8.30;60.00;;;;;;4929313;28;20463;-86
2022/12/08 10:39:34;;;;;;;15.03;6.30;;;8.30;59.90;;;;;;4895426;29;20465;-86
2022/12/08 10:42:06;;;;;;;8.43;5.60;;;8.20;60.90;;;;;;4919568;29;20478;-86
2022/12/08 10:44:37;;;;;;;12.50;8.30;;;8.20;60.10;;;;;;4936315;28;20968;-86
2022/12/08 10:47:12;;;;;;;9.63;5.87;;;8.30;60.30;;;;;;4946122;28;20975;-86
2022/12/08 10:49:39;;;;;;;10.90;6.40;;;8.40;59.90;;;;;;4915273;29;20473;-86
2022/12/08 10:52:22;;;;;;;9.80;6.13;;;8.70;59.90;;;;;;4908710;29;20478;-86
2022/12/08 10:54:54;;;;;;;16.93;7.90;;;8.90;59.30;;;;;;4929911;28;20470;-86
2022/12/08 10:57:24;;;;;;;24.40;12.47;;;8.80;59.20;;;;;;4911782;29;20458;-86
2022/12/08 10:59:54;;;;;;;20.67;10.50;;;8.60;59.40;;;;;;4893414;29;20517;-87
2022/12/08 11:02:21;;;;;;;14.50;7.67;;;8.70;60.00;;;;;;4927739;29;20748;-86
2022/12/08 11:04:58;;;;;;;13.33;7.03;;;8.70;59.60;;;;;;4896381;29;20995;-86
2022/12/08 11:07:27;;;;;;;11.50;6.00;;;8.90;59.10;;;;;;4954039;28;20456;-86
2022/12/08 11:09:57;;;;;;;10.30;6.97;;;8.70;58.10;;;;;;4948252;28;20488;-87
2022/12/08 11:12:28;;;;;;;10.27;7.10;;;8.90;59.30;;;;;;4927358;29;20578;-86
2022/12/08 11:15:01;;;;;;;8.63;5.23;;;8.70;59.40;;;;;;4895163;29;20460;-86
2022/12/08 11:17:34;;;;;;;10.97;6.87;;;8.80;58.80;;;;;;4921988;29;20811;-86
2022/12/08 11:20:05;;;;;;;10.60;8.07;;;9.10;58.70;;;;;;4930882;29;20478;-86
2022/12/08 11:22:38;;;;;;;11.90;7.30;;;9.20;58.60;;;;;;4935417;28;20484;-85
2022/12/08 11:25:10;;;;;;;10.67;6.43;;;9.30;58.40;;;;;;4921120;29;20462;-86
2022/12/08 11:27:39;;;;;;;8.67;4.83;;;9.30;58.30;;;;;;4895877;29;20474;-86
2022/12/08 11:30:15;;;;;;;6.70;4.40;;;9.20;57.30;;;;;;4895387;29;20518;-86
2022/12/08 11:32:44;;;;;;;7.30;4.77;;;9.30;57.70;;;;;;4948963;28;20478;-85
2022/12/08 11:35:20;;;;;;;8.00;5.93;;;9.20;56.70;;;;;;4948516;28;20488;-84
2022/12/08 11:37:48;;;;;;;7.83;5.80;;;9.00;57.60;;;;;;4924846;29;20461;-85
2022/12/08 11:40:20;;;;;;;7.47;5.60;;;9.00;57.40;;;;;;4920495;29;20458;-84
2022/12/08 11:43:02;;;;;;;27.20;16.80;;;9.00;57.70;;;;;;4894236;28;20686;-83
2022/12/08 11:45:33;;;;;;;31.13;17.87;;;9.10;58.20;;;;;;4910768;29;20462;-86
2022/12/08 11:48:09;;;;;;;9.10;5.93;;;9.00;57.90;;;;;;4904010;29;20450;-86
2022/12/08 11:50:43;;;;;;;13.77;8.07;;;9.10;58.00;;;;;;4921161;29;20458;-85
2022/12/08 11:53:20;;;;;;;7.60;5.37;;;9.30;57.80;;;;;;4910252;29;20485;-86
2022/12/08 11:55:52;;;;;;;6.57;4.10;;;9.40;56.90;;;;;;4933444;28;20981;-86
2022/12/08 11:58:25;;;;;;;6.00;4.07;;;9.40;56.00;;;;;;4910838;29;20455;-86
2022/12/08 12:00:52;;;;;;;8.90;4.77;;;9.30;56.50;;;;;;4950486;28;20521;-86
2022/12/08 12:03:28;;;;;;;8.27;4.47;;;9.00;57.20;;;;;;4933564;28;21007;-86
2022/12/08 12:06:19;;;;;;;5.47;4.10;;;8.70;58.40;;;;;;4908666;29;20499;-86
2022/12/08 12:08:55;;;;;;;6.20;4.90;;;8.90;58.30;;;;;;4916350;29;20478;-86
2022/12/08 12:14:32;;;;;;;6.27;4.50;;;9.40;56.90;;;;;;4932748;28;21167;-86
2022/12/08 12:17:03;;;;;;;6.00;3.80;;;9.30;56.10;;;;;;4893383;28;20999;-86
2022/12/08 12:19:35;;;;;;;5.53;3.87;;;9.50;56.40;;;;;;4910190;29;20859;-86
2022/12/08 12:22:11;;;;;;;7.90;3.70;;;9.50;56.70;;;;;;4897101;29;20454;-86
2022/12/08 12:24:43;;;;;;;6.37;3.90;;;9.30;56.10;;;;;;4914746;29;20459;-84
2022/12/08 12:27:23;;;;;;;6.13;4.27;;;9.30;56.20;;;;;;4932849;28;20470;-86
2022/12/08 12:29:54;;;;;;;6.30;4.17;;;9.10;57.20;;;;;;4946361;28;20517;-87
2022/12/08 12:32:21;;;;;;;7.97;4.80;;;8.80;57.40;;;;;;4895155;29;20476;-86
2022/12/08 12:34:51;;;;;;;6.10;4.10;;;9.00;57.80;;;;;;4890635;29;20450;-86
2022/12/08 12:37:22;;;;;;;6.33;4.17;;;9.00;57.50;;;;;;4933488;28;20447;-86
2022/12/08 12:39:58;;;;;;;8.27;4.97;;;9.10;57.30;;;;;;4917914;29;20458;-86
2022/12/08 12:42:38;;;;;;;8.83;6.20;;;9.30;56.70;;;;;;4933094;28;20491;-86
2022/12/08 12:45:24;;;;;;;8.73;4.90;;;9.30;57.40;;;;;;4932359;29;20460;-86
2022/12/08 12:47:52;;;;;;;5.60;4.23;;;9.40;57.00;;;;;;4917083;29;20463;-86
2022/12/08 12:50:41;;;;;;;4.20;3.80;;;9.30;56.30;;;;;;4891833;29;20481;-87
2022/12/08 12:53:49;;;;;;;6.60;4.30;;;9.30;56.00;;;;;;4933614;28;20992;-86
2022/12/08 12:56:48;;;;;;;6.60;4.47;;;9.20;56.60;;;;;;4926135;29;20457;-86
2022/12/08 12:59:42;;;;;;;9.73;6.13;;;9.20;56.50;;;;;;4925941;29;20447;-86
2022/12/08 13:02:22;;;;;;;10.53;8.93;;;9.40;56.80;;;;;;4909565;28;20556;-86
2022/12/08 13:05:00;;;;;;;6.60;5.20;;;9.30;56.10;;;;;;4934587;28;20501;-86
2022/12/08 13:07:30;;;;;;;3.30;3.00;;;9.30;56.20;;;;;;4917456;29;20959;-86